Time;durP1;ratioP1;P1;durP2;ratioP2;P2;SDS_P1;SDS_P2;PMS_P1;PMS_P2;Temp;Humidity;BMP_temperature;BMP_pressure;BME280_temperature;BME280_humidity;BME280_pressure;Samples;Min_cycle;Max_cycle;Signal;HPM_P1;HPM_P2
2020/12/15 00:00:02;;;;;;;1.25;1.17;;;;;;;4.90;86.46;98989.72;6282323;22;20041;-88
2020/12/15 00:02:29;;;;;;;0.30;0.30;;;;;;;5.39;86.47;99023.72;6281497;22;19985;-88
2020/12/15 00:04:55;;;;;;;0.75;0.75;;;;;;;4.97;85.98;98986.19;6281848;22;19994;-88
2020/12/15 00:07:23;;;;;;;1.65;0.57;;;;;;;5.22;86.20;98997.16;6257346;22;20013;-89
2020/12/15 01:02:26;;;;;;;0.20;0.20;;;;;;;5.00;83.75;98982.69;6164927;22;20029;-89
2020/12/15 02:38:06;;;;;;;0.65;0.65;;;;;;;5.26;83.74;98995.94;6300218;22;20019;-89
2020/12/15 02:40:34;;;;;;;0.30;0.30;;;;;;;5.97;83.89;99110.97;6226755;22;20607;-89
2020/12/15 05:38:26;;;;;;;0.40;0.40;;;;;;;5.64;85.10;99207.34;6286344;22;20024;-89
2020/12/15 05:40:56;;;;;;;0.65;0.65;;;;;;;5.13;84.23;99133.69;6258900;22;20087;-89
2020/12/15 06:04:08;;;;;;;0.50;0.50;;;;;;;5.17;83.09;99159.94;6097788;22;20022;-87
2020/12/15 07:43:23;;;;;;;0.25;0.25;;;;;;;7.23;77.81;99341.59;6112079;22;20036;-88
2020/12/15 07:45:55;;;;;;;0.75;0.75;;;;;;;6.89;77.77;99296.56;6152672;22;20021;-88
2020/12/15 07:51:04;;;;;;;1.52;1.05;;;;;;;6.88;76.91;99262.03;6151824;22;20005;-88
2020/12/15 07:53:34;;;;;;;0.40;0.40;;;;;;;6.86;77.60;99253.44;6224241;22;20003;-89
2020/12/15 10:37:22;;;;;;;1.75;1.65;;;;;;;10.46;71.03;99261.84;6120492;22;20051;-82
2020/12/15 10:40:41;;;;;;;0.80;0.68;;;;;;;10.47;70.71;99257.88;6243503;22;20030;-82
2020/12/15 15:27:33;;;;;;;1.92;1.83;;;;;;;6.77;83.33;99321.72;6100697;22;20139;-87
2020/12/15 15:29:59;;;;;;;5.45;1.83;;;;;;;6.21;82.41;99232.03;6120899;23;20025;-88
2020/12/15 15:32:31;;;;;;;3.47;1.92;;;;;;;6.36;83.06;99270.03;6120736;23;20026;-88
2020/12/15 15:34:57;;;;;;;1.48;1.48;;;;;;;6.37;82.75;99282.56;6119430;23;20016;-88
2020/12/15 15:40:09;;;;;;;6.90;4.47;;;;;;;6.17;82.86;99262.19;6168511;22;20022;-90
2020/12/15 15:42:36;;;;;;;10.45;7.13;;;;;;;6.34;84.14;99302.56;6151294;22;20013;-89
2020/12/15 15:45:03;;;;;;;26.35;11.18;;;;;;;6.06;83.79;99234.78;6153349;23;20006;-90
2020/12/15 15:50:08;;;;;;;11.00;6.35;;;;;;;5.93;84.52;99258.28;6164110;22;20026;-89
2020/12/15 15:52:39;;;;;;;7.88;4.13;;;;;;;5.84;84.91;99237.91;6153279;22;20010;-89
2020/12/15 15:55:08;;;;;;;26.38;2.67;;;;;;;5.73;85.56;99259.81;6152488;23;20017;-89
2020/12/15 15:57:37;;;;;;;2.53;1.98;;;;;;;5.91;85.68;99285.31;6153119;22;19990;-90
2020/12/15 16:00:06;;;;;;;3.72;1.90;;;;;;;5.92;86.13;99294.31;6152404;22;20025;-88
2020/12/15 16:02:32;;;;;;;6.20;1.80;;;;;;;5.88;86.15;99293.53;6147987;22;20001;-88
2020/12/15 16:04:59;;;;;;;0.60;0.60;;;;;;;6.42;86.23;99383.72;6148409;23;20017;-88
2020/12/15 16:10:00;;;;;;;2.92;1.70;;;;;;;5.55;86.61;99276.22;6164838;22;20036;-87
2020/12/15 16:12:26;;;;;;;2.72;1.02;;;;;;;6.01;87.07;99355.06;6145698;23;20013;-88
2020/12/15 16:14:53;;;;;;;3.65;1.25;;;;;;;5.63;86.45;99310.72;6145239;23;19990;-88
2020/12/15 16:17:19;;;;;;;1.90;1.80;;;;;;;5.90;85.84;99330.38;6156624;22;20044;-87
2020/12/15 16:19:47;;;;;;;0.85;0.85;;;;;;;5.45;86.13;99307.13;6140483;23;20010;-88
2020/12/15 16:22:13;;;;;;;;;;;;;;;6.16;87.16;99386.03;6145437;23;20009;-88
2020/12/15 16:24:39;;;;;;;3.55;2.95;;;;;;;5.63;86.59;99342.81;6147689;23;20253;-88
2020/12/15 16:27:05;;;;;;;1.70;1.45;;;;;;;5.91;86.61;99344.84;6149642;23;20013;-89
2020/12/15 16:29:31;;;;;;;1.58;1.08;;;;;;;5.50;86.47;99297.75;6142696;23;20001;-87
2020/12/15 16:31:57;;;;;;;2.28;1.25;;;;;;;5.81;86.41;99331.88;6148983;22;20002;-88
2020/12/15 16:34:23;;;;;;;2.75;1.77;;;;;;;5.51;86.64;99294.63;6148993;23;20001;-88
2020/12/15 16:36:53;;;;;;;2.60;2.40;;;;;;;5.69;86.46;99347.53;6146859;23;20010;-88
2020/12/15 16:39:21;;;;;;;1.27;1.27;;;;;;;5.81;86.92;99365.56;6145462;23;20005;-88
2020/12/15 16:41:47;;;;;;;1.45;1.42;;;;;;;5.37;86.39;99302.00;6149993;22;20010;-87
2020/12/15 16:44:15;;;;;;;4.20;3.67;;;;;;;5.80;87.28;99376.94;6150455;23;19994;-89
2020/12/15 16:46:41;;;;;;;3.28;2.95;;;;;;;5.16;87.15;99317.22;6150670;23;20021;-89
2020/12/15 16:49:08;;;;;;;3.33;2.80;;;;;;;5.21;86.99;99327.78;6151644;23;20006;-89
2020/12/15 16:51:35;;;;;;;3.10;1.05;;;;;;;5.11;88.12;99317.59;6176529;23;20004;-88
2020/12/15 16:54:03;;;;;;;1.90;1.80;;;;;;;5.25;87.65;99344.25;6152038;23;20002;-88
2020/12/15 16:56:31;;;;;;;2.45;1.92;;;;;;;5.27;87.65;99347.38;6177998;23;19994;-89
2020/12/15 16:58:58;;;;;;;1.98;1.85;;;;;;;5.34;87.66;99352.91;6177972;23;20006;-89
2020/12/15 17:01:32;;;;;;;1.38;1.27;;;;;;;4.99;88.42;99337.09;6178504;23;19997;-89
2020/12/15 17:03:58;;;;;;;2.28;1.42;;;;;;;4.94;88.49;99347.63;6145317;23;20095;-87
2020/12/15 17:06:24;;;;;;;0.68;0.60;;;;;;;4.80;88.76;99313.53;6145546;23;20030;-88
2020/12/15 17:08:50;;;;;;;1.40;1.40;;;;;;;4.93;89.17;99348.78;6089890;23;20010;-87
2020/12/15 17:11:17;;;;;;;3.90;1.10;;;;;;;4.90;89.20;99355.81;6136396;22;20006;-87
2020/12/15 17:13:43;;;;;;;0.88;0.88;;;;;;;5.21;88.92;99387.28;6113783;23;20014;-88
2020/12/15 17:16:09;;;;;;;1.38;1.35;;;;;;;4.85;89.24;99342.47;6110269;23;20041;-87
2020/12/15 17:18:36;;;;;;;1.02;1.02;;;;;;;4.84;89.75;99373.75;6110193;23;20010;-88
2020/12/15 17:21:03;;;;;;;1.27;1.27;;;;;;;5.36;89.86;99443.72;6112894;23;20002;-88
2020/12/15 17:26:14;;;;;;;4.38;2.97;;;;;;;4.62;90.03;99388.47;6139895;22;20037;-88
2020/12/15 17:28:40;;;;;;;1.45;1.35;;;;;;;5.15;89.24;99460.03;6117437;23;19994;-88
2020/12/15 17:31:07;;;;;;;2.70;2.50;;;;;;;4.40;89.50;99380.06;6114752;23;20029;-88
2020/12/15 17:33:32;;;;;;;2.28;1.77;;;;;;;4.42;89.82;99418.00;6137196;22;20010;-86
2020/12/15 17:35:58;;;;;;;2.55;2.35;;;;;;;4.06;91.60;99362.19;6126699;23;20022;-86
2020/12/15 17:38:24;;;;;;;5.20;2.38;;;;;;;4.10;92.86;99385.69;6132688;23;19998;-88
2020/12/15 17:40:50;;;;;;;1.48;0.80;;;;;;;4.55;92.80;99418.50;6141338;23;20008;-88
2020/12/15 17:43:16;;;;;;;3.17;1.40;;;;;;;4.66;92.51;99420.16;6141378;23;20010;-87
2020/12/15 17:45:42;;;;;;;3.83;3.33;;;;;;;4.98;92.33;99468.91;6143934;23;20009;-88
2020/12/15 17:48:08;;;;;;;1.52;1.48;;;;;;;4.60;92.52;99404.47;6143083;23;20018;-88
2020/12/15 17:50:34;;;;;;;1.52;1.52;;;;;;;4.40;91.76;99380.06;6139663;23;20006;-88
2020/12/15 17:53:00;;;;;;;2.35;2.25;;;;;;;4.71;91.82;99441.72;6136887;23;20013;-88
2020/12/15 17:55:26;;;;;;;2.25;2.15;;;;;;;4.31;91.81;99389.78;6121122;22;20029;-88
2020/12/15 17:57:52;;;;;;;2.10;1.90;;;;;;;4.74;91.27;99430.00;6110391;23;20009;-87
2020/12/15 18:02:54;;;;;;;0.93;0.93;;;;;;;4.85;91.18;99450.03;6174128;22;20023;-87
2020/12/15 18:05:20;;;;;;;1.40;1.40;;;;;;;4.30;91.31;99388.19;6300951;22;20086;-88
2020/12/15 18:07:47;;;;;;;1.30;1.30;;;;;;;4.38;90.95;99387.91;6303401;22;20015;-88
2020/12/15 18:10:15;;;;;;;3.17;2.88;;;;;;;4.28;92.22;99393.28;6302488;22;20007;-88
2020/12/15 18:12:41;;;;;;;1.20;1.15;;;;;;;5.04;91.37;99492.03;6305920;22;20030;-87
2020/12/15 18:15:10;;;;;;;1.38;1.38;;;;;;;4.25;91.62;99396.75;6297277;22;20004;-89
2020/12/15 18:17:38;;;;;;;0.63;0.63;;;;;;;4.23;91.54;99386.19;6323090;22;20363;-87
2020/12/15 18:20:04;;;;;;;0.52;0.52;;;;;;;4.23;92.21;99390.88;6292169;22;20003;-87
2020/12/15 18:22:30;;;;;;;2.63;1.83;;;;;;;4.91;92.15;99486.06;6304021;22;20014;-88
2020/12/15 18:24:56;;;;;;;0.85;0.85;;;;;;;4.12;92.44;99384.50;6304377;22;20082;-88
2020/12/15 18:27:22;;;;;;;1.52;1.38;;;;;;;4.34;92.63;99435.53;6302705;22;20477;-88
2020/12/15 18:29:48;;;;;;;3.08;2.08;;;;;;;4.21;91.83;99399.47;6297956;22;20011;-88
2020/12/15 18:32:14;;;;;;;2.60;2.38;;;;;;;4.30;92.34;99418.28;6235235;22;20026;-88
2020/12/15 18:34:40;;;;;;;2.33;2.22;;;;;;;4.85;92.66;99485.63;6106260;22;20052;-87
2020/12/15 18:39:47;;;;;;;2.25;2.05;;;;;;;4.06;92.46;99393.06;6139970;22;20048;-87
2020/12/15 18:42:17;;;;;;;1.50;1.42;;;;;;;4.01;92.97;99393.41;6238893;22;20014;-87
2020/12/15 18:44:50;;;;;;;1.65;1.55;;;;;;;3.89;92.80;99376.50;6134743;22;20006;-87
2020/12/15 19:18:21;;;;;;;1.30;1.30;;;;;;;3.89;93.85;99467.47;6124339;22;20018;-87
2020/12/15 19:20:53;;;;;;;1.95;1.85;;;;;;;4.03;94.71;99481.31;6222819;22;20006;-88
2020/12/15 19:48:59;;;;;;;1.70;1.65;;;;;;;4.20;94.63;99520.97;6078223;22;20052;31
2020/12/15 19:51:26;;;;;;;3.80;2.42;;;;;;;3.40;94.44;99412.22;6177912;23;20028;-87
2020/12/15 19:53:52;;;;;;;2.65;2.55;;;;;;;3.27;93.71;99387.88;6166890;23;20006;-86
2020/12/15 19:56:27;;;;;;;3.38;2.58;;;;;;;3.56;94.07;99492.03;6177322;23;20000;-88
2020/12/15 19:59:04;;;;;;;11.18;3.15;;;;;;;3.49;94.17;99459.19;6184041;23;19991;-88
2020/12/15 20:01:37;;;;;;;12.73;4.18;;;;;;;3.37;94.49;99473.06;6159979;23;20013;-87
2020/12/15 20:04:03;;;;;;;5.57;3.78;;;;;;;3.20;94.18;99436.94;6184855;23;20054;-89
2020/12/15 20:06:33;;;;;;;2.75;2.47;;;;;;;3.15;94.49;99415.41;6159681;23;20066;-88
2020/12/15 20:09:04;;;;;;;4.93;4.50;;;;;;;3.85;94.13;99534.22;6159678;23;20005;-89
2020/12/15 20:11:32;;;;;;;3.72;2.42;;;;;;;3.75;94.42;99532.91;6191947;22;20014;-89
2020/12/15 20:13:59;;;;;;;2.17;1.98;;;;;;;2.94;94.45;99439.69;6121952;23;20018;-88
2020/12/15 20:16:26;;;;;;;5.15;3.63;;;;;;;2.96;95.36;99448.28;6123916;23;20010;-88
2020/12/15 20:18:59;;;;;;;7.30;4.80;;;;;;;2.91;94.82;99443.13;6148667;23;20021;-88
2020/12/15 20:21:26;;;;;;;8.68;4.70;;;;;;;3.64;94.98;99540.16;6146661;23;20012;-88
2020/12/15 20:24:01;;;;;;;4.53;4.13;;;;;;;2.82;94.88;99443.41;6147020;23;19990;-88
2020/12/15 20:26:29;;;;;;;6.63;4.20;;;;;;;3.30;94.64;99492.88;6149784;22;20014;-88
2020/12/15 20:29:05;;;;;;;4.17;3.93;;;;;;;2.82;95.57;99459.00;6149074;23;20066;-88
2020/12/15 20:31:33;;;;;;;4.03;3.63;;;;;;;3.60;95.89;99572.91;6148827;22;19998;-88
2020/12/15 20:34:04;;;;;;;5.47;4.93;;;;;;;3.17;95.93;99481.38;6114435;22;20051;-88
2020/12/15 20:36:39;;;;;;;6.82;3.65;;;;;;;2.78;95.67;99463.59;6149684;22;20033;-88
2020/12/15 20:39:08;;;;;;;2.25;2.15;;;;;;;2.66;94.91;99455.59;6149658;22;20001;-88
2020/12/15 20:41:34;;;;;;;13.75;3.22;;;;;;;2.75;95.79;99458.88;6253680;22;20032;-89
2020/12/15 20:44:04;;;;;;;0.88;0.88;;;;;;;2.99;96.92;99504.88;6149966;22;20010;-89
2020/12/15 20:46:34;;;;;;;3.00;2.85;;;;;;;2.82;96.89;99459.00;6123515;23;19994;-89
2020/12/15 20:49:05;;;;;;;1.70;1.65;;;;;;;2.82;96.52;99462.50;6123558;23;19990;-88
2020/12/15 20:51:33;;;;;;;1.52;1.42;;;;;;;3.15;97.00;99518.38;6123053;23;20010;-88
2020/12/15 20:54:01;;;;;;;2.10;2.00;;;;;;;3.16;96.56;99504.38;6100200;23;20009;-88
2020/12/15 20:56:27;;;;;;;1.38;1.38;;;;;;;2.84;95.91;99484.75;6120433;23;20032;-88
2020/12/15 20:58:54;;;;;;;1.15;1.15;;;;;;;2.93;95.78;99500.09;6146945;23;20068;-88
2020/12/15 21:01:25;;;;;;;3.22;3.03;;;;;;;3.51;95.43;99575.09;6096475;23;20089;-88
2020/12/15 21:03:51;;;;;;;2.45;2.28;;;;;;;2.72;96.10;99497.78;6120967;23;20381;-88
2020/12/15 21:06:17;;;;;;;1.98;1.20;;;;;;;2.68;94.97;99516.06;6117423;23;20105;-88
2020/12/15 21:08:43;;;;;;;2.60;1.75;;;;;;;2.49;93.98;99505.97;6112974;23;20010;-87
2020/12/15 21:11:10;;;;;;;2.97;2.78;;;;;;;2.43;96.10;99502.75;6114040;23;20013;-87
2020/12/15 21:13:36;;;;;;;2.00;1.67;;;;;;;2.51;97.10;99495.50;6138601;23;20010;-87
2020/12/15 21:16:03;;;;;;;1.83;1.73;;;;;;;2.57;97.46;99498.72;6092612;23;20038;-86
2020/12/15 21:18:37;;;;;;;0.38;0.38;;;;;;;2.55;97.58;99490.09;6250184;22;19998;-88
2020/12/15 21:21:04;;;;;;;2.03;1.88;;;;;;;2.51;96.91;99481.06;6227926;23;20059;-88
2020/12/15 21:23:48;;;;;;;1.63;1.52;;;;;;;2.57;97.26;99482.34;6226182;23;20022;-88
2020/12/15 21:26:15;;;;;;;2.17;1.52;;;;;;;3.09;97.13;99550.66;6252962;23;20053;-88
2020/12/15 21:28:47;;;;;;;2.20;2.08;;;;;;;3.00;97.15;99538.44;6228023;22;19990;-88
2020/12/15 21:31:13;;;;;;;2.42;2.22;;;;;;;2.48;97.03;99496.22;6252856;22;20073;-88
2020/12/15 21:33:40;;;;;;;3.30;3.00;;;;;;;3.01;97.39;99551.72;6252128;23;20002;-88
2020/12/15 21:36:09;;;;;;;5.43;1.80;;;;;;;2.51;97.09;99517.31;6252737;22;20041;-88
2020/12/15 21:38:37;;;;;;;1.65;1.30;;;;;;;2.49;96.81;99499.72;6227981;23;20002;-88
2020/12/15 21:41:05;;;;;;;5.80;2.95;;;;;;;2.43;96.04;99518.34;6228042;22;20014;-88
2020/12/15 21:43:35;;;;;;;2.30;2.10;;;;;;;3.04;94.96;99616.50;6203726;22;20009;-87
2020/12/15 21:46:01;;;;;;;2.60;2.40;;;;;;;2.29;95.76;99509.91;6220563;22;20031;-87
2020/12/15 21:48:28;;;;;;;3.05;2.85;;;;;;;2.28;95.57;99533.66;6261560;23;20015;-87
2020/12/15 21:50:54;;;;;;;1.85;1.75;;;;;;;2.43;94.62;99535.50;6263029;23;20008;-87
2020/12/15 21:53:20;;;;;;;6.63;1.83;;;;;;;1.90;93.20;99517.31;6262813;23;20095;-88
2020/12/15 21:55:46;;;;;;;1.25;1.25;;;;;;;1.73;92.67;99520.47;6262330;23;20004;-88
2020/12/15 21:58:12;;;;;;;0.77;0.77;;;;;;;1.88;92.49;99563.19;6263119;23;20067;-88
2020/12/15 22:00:38;;;;;;;0.95;0.95;;;;;;;1.95;93.36;99642.38;6269339;23;20007;-88
2020/12/15 22:05:44;;;;;;;0.45;0.45;;;;;;;1.39;94.05;99563.69;6150079;22;20022;-88
2020/12/15 22:08:10;;;;;;;1.27;1.23;;;;;;;0.92;94.33;99517.47;6119210;23;20016;-88
2020/12/15 22:10:36;;;;;;;0.93;0.93;;;;;;;0.96;94.69;99526.53;6118192;23;20017;-87
2020/12/15 22:15:30;;;;;;;;;;;;;;;1.46;95.33;99615.56;6143791;23;19923;-87
2020/12/15 22:17:56;;;;;;;0.75;0.75;;;;;;;0.72;95.80;99541.06;6119867;23;19893;-87
2020/12/15 22:20:22;;;;;;;1.65;1.55;;;;;;;1.32;96.39;99617.19;6120062;23;20442;-87
2020/12/15 22:22:48;;;;;;;1.20;1.15;;;;;;;0.39;96.26;99522.38;6119429;23;20013;-87
2020/12/15 22:25:14;;;;;;;0.65;0.65;;;;;;;0.37;96.18;99548.31;6119671;23;20010;-87
2020/12/15 22:27:40;;;;;;;1.30;1.30;;;;;;;0.78;96.49;99594.06;6120788;23;20016;-87
2020/12/15 22:30:07;;;;;;;1.10;1.10;;;;;;;0.28;96.30;99517.78;6119470;23;20002;-87
2020/12/15 22:32:34;;;;;;;0.82;0.82;;;;;;;0.19;95.56;99557.91;6118477;23;20006;-87
2020/12/15 22:35:01;;;;;;;1.67;1.58;;;;;;;0.07;95.06;99530.78;6118384;23;20014;-87
2020/12/15 22:37:29;;;;;;;0.40;0.40;;;;;;;0.46;95.26;99581.56;6094972;23;20025;-87
2020/12/15 22:39:55;;;;;;;1.02;1.02;;;;;;;0.28;95.21;99580.28;6121311;23;20010;-86
2020/12/15 22:42:25;;;;;;;0.22;0.22;;;;;;;-0.08;95.85;99524.97;6122807;23;20009;-87
2020/12/15 22:44:54;;;;;;;0.28;0.28;;;;;;;0.10;96.36;99590.66;6122963;23;20001;-88
2020/12/15 22:47:21;;;;;;;0.52;0.52;;;;;;;-0.01;96.87;99551.56;6121891;23;20017;-88
2020/12/15 22:49:47;;;;;;;0.50;0.50;;;;;;;0.26;97.16;99605.09;6096732;23;20340;-87
2020/12/15 22:52:14;;;;;;;1.25;1.15;;;;;;;0.66;97.25;99636.88;6090125;23;20070;-87
2020/12/15 22:54:40;;;;;;;1.30;1.20;;;;;;;0.08;97.13;99571.19;6089977;23;20064;-87
2020/12/15 22:57:06;;;;;;;10.43;2.20;;;;;;;-0.09;96.61;99555.19;6086063;23;20006;-87
2020/12/15 22:59:33;;;;;;;0.43;0.43;;;;;;;0.00;96.41;99574.88;6085444;23;20003;-86
2020/12/15 23:01:59;;;;;;;0.38;0.38;;;;;;;-0.19;96.07;99545.59;6083862;23;20017;-87
2020/12/15 23:04:26;;;;;;;0.55;0.55;;;;;;;0.23;96.56;99607.72;6089709;23;20002;-88
2020/12/15 23:06:54;;;;;;;1.17;0.60;;;;;;;-0.19;97.07;99572.75;6094792;23;20033;-88
2020/12/15 23:09:20;;;;;;;0.98;0.98;;;;;;;-0.13;96.24;99584.97;6094126;23;20018;-88
2020/12/15 23:11:46;;;;;;;1.65;1.05;;;;;;;-0.41;96.54;99556.97;6084934;23;20013;-87
2020/12/15 23:14:12;;;;;;;1.45;1.38;;;;;;;-0.23;97.02;99588.16;6092083;23;20026;-87
2020/12/15 23:16:38;;;;;;;0.85;0.85;;;;;;;-0.19;97.38;99578.19;6109213;23;20062;-87
2020/12/15 23:19:04;;;;;;;1.70;1.33;;;;;;;0.36;97.58;99655.47;6108917;23;20007;-87
2020/12/15 23:21:35;;;;;;;1.35;1.17;;;;;;;-0.34;97.88;99565.31;6110381;23;19990;-87
2020/12/15 23:24:01;;;;;;;0.63;0.63;;;;;;;-0.16;97.91;99604.66;6108886;23;20041;-87
2020/12/15 23:26:27;;;;;;;0.40;0.40;;;;;;;0.07;98.03;99598.69;6110004;23;20066;-87
2020/12/15 23:28:53;;;;;;;2.05;1.10;;;;;;;-0.28;97.63;99558.53;6109355;23;20025;-87
2020/12/15 23:31:19;;;;;;;1.05;1.05;;;;;;;0.43;97.89;99663.81;6109344;23;20010;-87
2020/12/15 23:33:45;;;;;;;2.72;1.15;;;;;;;-0.33;97.36;99558.75;6110848;23;20040;-87
2020/12/15 23:36:15;;;;;;;1.77;1.67;;;;;;;0.00;97.44;99623.75;6110607;23;20006;-87
2020/12/15 23:38:41;;;;;;;1.27;1.27;;;;;;;0.39;98.04;99663.72;6113622;23;20010;-87
2020/12/15 23:41:08;;;;;;;0.95;0.95;;;;;;;0.09;98.20;99616.25;6115190;23;20022;-87
2020/12/15 23:43:34;;;;;;;0.30;0.30;;;;;;;-0.38;98.38;99580.72;6112147;23;20017;-87
2020/12/15 23:46:00;;;;;;;0.30;0.30;;;;;;;0.42;97.94;99667.69;6116091;22;20247;-87
2020/12/15 23:48:28;;;;;;;0.63;0.63;;;;;;;0.39;97.48;99673.78;6115381;23;20029;-87
2020/12/15 23:50:54;;;;;;;2.00;1.90;;;;;;;-0.45;97.19;99589.44;6115139;23;20007;-87
2020/12/15 23:53:21;;;;;;;0.43;0.43;;;;;;;-0.42;97.34;99602.31;6114908;23;20092;-87
2020/12/15 23:55:47;;;;;;;0.77;0.77;;;;;;;-0.08;97.80;99624.66;6115348;23;20025;-87
2020/12/15 23:58:16;;;;;;;0.70;0.70;;;;;;;-0.54;97.84;99583.31;6113973;23;20056;-87
